sensor_id;sensor_type;location;lat;lon;timestamp;P1;durP1;ratioP1;P2;durP2;ratioP2
74503;SDS011;62988;55.776;37.544;2024-03-22T00:01:00;15.37;;;6.47;;
74503;SDS011;62988;55.776;37.544;2024-03-22T00:03:26;10.82;;;6.03;;
74503;SDS011;62988;55.776;37.544;2024-03-22T00:05:51;14.48;;;6.18;;
74503;SDS011;62988;55.776;37.544;2024-03-22T00:08:17;14.27;;;6.55;;
74503;SDS011;62988;55.776;37.544;2024-03-22T00:10:42;17.93;;;7.27;;
74503;SDS011;62988;55.776;37.544;2024-03-22T00:13:07;19.93;;;7.07;;
74503;SDS011;62988;55.776;37.544;2024-03-22T00:15:32;17.73;;;6.77;;
74503;SDS011;62988;55.776;37.544;2024-03-22T00:17:58;18.85;;;6.68;;
74503;SDS011;62988;55.776;37.544;2024-03-22T00:20:23;12.77;;;6.67;;
74503;SDS011;62988;55.776;37.544;2024-03-22T00:22:48;15.10;;;5.07;;
74503;SDS011;62988;55.776;37.544;2024-03-22T00:25:14;16.33;;;5.63;;
74503;SDS011;62988;55.776;37.544;2024-03-22T00:27:39;15.10;;;6.70;;
74503;SDS011;62988;55.776;37.544;2024-03-22T00:30:05;12.10;;;5.90;;
74503;SDS011;62988;55.776;37.544;2024-03-22T00:32:30;16.13;;;6.13;;
74503;SDS011;62988;55.776;37.544;2024-03-22T00:34:55;18.13;;;6.07;;
74503;SDS011;62988;55.776;37.544;2024-03-22T00:37:21;18.70;;;7.50;;
74503;SDS011;62988;55.776;37.544;2024-03-22T00:39:46;15.60;;;6.57;;
74503;SDS011;62988;55.776;37.544;2024-03-22T00:42:11;12.50;;;6.23;;
74503;SDS011;62988;55.776;37.544;2024-03-22T00:44:36;13.80;;;6.43;;
74503;SDS011;62988;55.776;37.544;2024-03-22T00:47:02;15.50;;;6.60;;
74503;SDS011;62988;55.776;37.544;2024-03-22T00:49:28;17.05;;;7.30;;
74503;SDS011;62988;55.776;37.544;2024-03-22T00:51:53;19.38;;;7.93;;
74503;SDS011;62988;55.776;37.544;2024-03-22T00:54:21;17.63;;;6.65;;
74503;SDS011;62988;55.776;37.544;2024-03-22T00:56:46;15.53;;;6.30;;
74503;SDS011;62988;55.776;37.544;2024-03-22T00:59:12;20.15;;;7.00;;
74503;SDS011;62988;55.776;37.544;2024-03-22T01:01:37;19.80;;;6.77;;
74503;SDS011;62988;55.776;37.544;2024-03-22T01:04:03;19.27;;;7.45;;
74503;SDS011;62988;55.776;37.544;2024-03-22T01:06:28;17.50;;;6.95;;
74503;SDS011;62988;55.776;37.544;2024-03-22T01:08:54;21.53;;;7.53;;
74503;SDS011;62988;55.776;37.544;2024-03-22T01:11:19;16.38;;;8.07;;
74503;SDS011;62988;55.776;37.544;2024-03-22T01:13:44;20.60;;;7.07;;
74503;SDS011;62988;55.776;37.544;2024-03-22T01:16:10;18.43;;;6.93;;
74503;SDS011;62988;55.776;37.544;2024-03-22T01:18:35;15.57;;;6.90;;
74503;SDS011;62988;55.776;37.544;2024-03-22T01:21:01;16.00;;;7.10;;
74503;SDS011;62988;55.776;37.544;2024-03-22T01:23:26;14.37;;;7.37;;
74503;SDS011;62988;55.776;37.544;2024-03-22T01:25:51;16.17;;;6.57;;
74503;SDS011;62988;55.776;37.544;2024-03-22T01:28:16;26.43;;;7.23;;
74503;SDS011;62988;55.776;37.544;2024-03-22T01:30:42;16.50;;;6.57;;
74503;SDS011;62988;55.776;37.544;2024-03-22T01:33:07;14.73;;;6.65;;
74503;SDS011;62988;55.776;37.544;2024-03-22T01:35:33;14.50;;;6.83;;
74503;SDS011;62988;55.776;37.544;2024-03-22T01:37:58;13.67;;;6.43;;
74503;SDS011;62988;55.776;37.544;2024-03-22T01:40:23;15.77;;;6.50;;
74503;SDS011;62988;55.776;37.544;2024-03-22T01:42:52;10.47;;;5.27;;
74503;SDS011;62988;55.776;37.544;2024-03-22T01:45:17;13.77;;;6.35;;
74503;SDS011;62988;55.776;37.544;2024-03-22T01:47:43;14.07;;;6.32;;
74503;SDS011;62988;55.776;37.544;2024-03-22T01:50:08;15.03;;;5.97;;
74503;SDS011;62988;55.776;37.544;2024-03-22T01:52:34;10.57;;;6.53;;
74503;SDS011;62988;55.776;37.544;2024-03-22T01:54:59;13.57;;;5.90;;
74503;SDS011;62988;55.776;37.544;2024-03-22T01:57:25;15.13;;;5.93;;
74503;SDS011;62988;55.776;37.544;2024-03-22T01:59:52;21.80;;;6.88;;
74503;SDS011;62988;55.776;37.544;2024-03-22T02:02:18;15.50;;;5.90;;
74503;SDS011;62988;55.776;37.544;2024-03-22T02:04:44;20.67;;;6.30;;
74503;SDS011;62988;55.776;37.544;2024-03-22T02:07:09;17.20;;;6.53;;
74503;SDS011;62988;55.776;37.544;2024-03-22T02:09:34;13.83;;;5.00;;
74503;SDS011;62988;55.776;37.544;2024-03-22T02:12:01;13.93;;;6.40;;
74503;SDS011;62988;55.776;37.544;2024-03-22T02:14:26;12.07;;;5.60;;
74503;SDS011;62988;55.776;37.544;2024-03-22T02:16:52;13.90;;;5.57;;
74503;SDS011;62988;55.776;37.544;2024-03-22T02:19:17;14.00;;;6.03;;
74503;SDS011;62988;55.776;37.544;2024-03-22T02:21:42;11.13;;;5.80;;
74503;SDS011;62988;55.776;37.544;2024-03-22T02:24:07;11.00;;;5.53;;
74503;SDS011;62988;55.776;37.544;2024-03-22T02:26:33;12.10;;;4.97;;
74503;SDS011;62988;55.776;37.544;2024-03-22T02:28:58;9.63;;;5.20;;
74503;SDS011;62988;55.776;37.544;2024-03-22T02:31:23;15.13;;;5.97;;
74503;SDS011;62988;55.776;37.544;2024-03-22T02:33:50;13.05;;;5.65;;
74503;SDS011;62988;55.776;37.544;2024-03-22T02:36:16;12.45;;;5.97;;
74503;SDS011;62988;55.776;37.544;2024-03-22T02:38:41;14.38;;;5.35;;
74503;SDS011;62988;55.776;37.544;2024-03-22T02:41:07;29.75;;;5.88;;
74503;SDS011;62988;55.776;37.544;2024-03-22T02:43:32;16.73;;;6.30;;
74503;SDS011;62988;55.776;37.544;2024-03-22T02:45:57;15.07;;;5.73;;
74503;SDS011;62988;55.776;37.544;2024-03-22T02:48:23;17.03;;;6.50;;
74503;SDS011;62988;55.776;37.544;2024-03-22T02:50:48;16.23;;;6.57;;
74503;SDS011;62988;55.776;37.544;2024-03-22T02:53:13;9.80;;;5.03;;
74503;SDS011;62988;55.776;37.544;2024-03-22T02:55:39;10.73;;;5.33;;
74503;SDS011;62988;55.776;37.544;2024-03-22T02:58:04;14.15;;;6.22;;
74503;SDS011;62988;55.776;37.544;2024-03-22T03:00:30;18.08;;;6.20;;
74503;SDS011;62988;55.776;37.544;2024-03-22T03:02:56;13.93;;;5.43;;
74503;SDS011;62988;55.776;37.544;2024-03-22T03:05:21;14.80;;;5.97;;
74503;SDS011;62988;55.776;37.544;2024-03-22T03:07:48;16.50;;;6.10;;
74503;SDS011;62988;55.776;37.544;2024-03-22T03:10:13;15.55;;;6.25;;
74503;SDS011;62988;55.776;37.544;2024-03-22T03:12:39;14.38;;;6.03;;
74503;SDS011;62988;55.776;37.544;2024-03-22T03:15:04;17.43;;;6.57;;
74503;SDS011;62988;55.776;37.544;2024-03-22T03:17:30;19.60;;;6.00;;
74503;SDS011;62988;55.776;37.544;2024-03-22T03:19:55;18.63;;;5.80;;
74503;SDS011;62988;55.776;37.544;2024-03-22T03:22:20;15.83;;;6.17;;
74503;SDS011;62988;55.776;37.544;2024-03-22T03:24:46;15.03;;;6.23;;
74503;SDS011;62988;55.776;37.544;2024-03-22T03:27:11;15.70;;;6.23;;
74503;SDS011;62988;55.776;37.544;2024-03-22T03:29:36;15.63;;;6.63;;
74503;SDS011;62988;55.776;37.544;2024-03-22T03:32:02;12.20;;;5.88;;
74503;SDS011;62988;55.776;37.544;2024-03-22T03:34:27;14.90;;;6.43;;
74503;SDS011;62988;55.776;37.544;2024-03-22T03:36:53;16.10;;;6.43;;
74503;SDS011;62988;55.776;37.544;2024-03-22T03:39:18;20.03;;;6.23;;
74503;SDS011;62988;55.776;37.544;2024-03-22T03:41:43;12.70;;;6.40;;
74503;SDS011;62988;55.776;37.544;2024-03-22T03:44:08;14.90;;;6.50;;
74503;SDS011;62988;55.776;37.544;2024-03-22T03:46:34;26.25;;;6.68;;
74503;SDS011;62988;55.776;37.544;2024-03-22T03:48:59;17.87;;;6.67;;
74503;SDS011;62988;55.776;37.544;2024-03-22T03:51:24;15.60;;;6.23;;
74503;SDS011;62988;55.776;37.544;2024-03-22T03:53:50;16.20;;;7.07;;
74503;SDS011;62988;55.776;37.544;2024-03-22T03:56:15;14.77;;;7.07;;
74503;SDS011;62988;55.776;37.544;2024-03-22T03:58:40;13.17;;;7.00;;
74503;SDS011;62988;55.776;37.544;2024-03-22T04:01:06;20.27;;;7.00;;
74503;SDS011;62988;55.776;37.544;2024-03-22T04:03:31;16.65;;;6.95;;
74503;SDS011;62988;55.776;37.544;2024-03-22T04:05:57;18.20;;;8.57;;
74503;SDS011;62988;55.776;37.544;2024-03-22T04:08:23;20.08;;;7.35;;
74503;SDS011;62988;55.776;37.544;2024-03-22T04:10:54;20.33;;;7.72;;
74503;SDS011;62988;55.776;37.544;2024-03-22T04:13:26;18.33;;;8.02;;
74503;SDS011;62988;55.776;37.544;2024-03-22T04:15:51;21.08;;;7.70;;
74503;SDS011;62988;55.776;37.544;2024-03-22T04:18:17;18.55;;;7.10;;
74503;SDS011;62988;55.776;37.544;2024-03-22T04:20:42;19.15;;;8.05;;
74503;SDS011;62988;55.776;37.544;2024-03-22T04:23:10;20.27;;;7.82;;
74503;SDS011;62988;55.776;37.544;2024-03-22T04:25:35;20.57;;;9.10;;
74503;SDS011;62988;55.776;37.544;2024-03-22T04:28:01;32.73;;;9.60;;
74503;SDS011;62988;55.776;37.544;2024-03-22T04:30:26;24.07;;;7.93;;
74503;SDS011;62988;55.776;37.544;2024-03-22T04:32:51;18.93;;;7.30;;
74503;SDS011;62988;55.776;37.544;2024-03-22T04:35:17;26.00;;;8.30;;
74503;SDS011;62988;55.776;37.544;2024-03-22T04:37:42;20.60;;;8.35;;
74503;SDS011;62988;55.776;37.544;2024-03-22T04:40:08;21.95;;;8.75;;
74503;SDS011;62988;55.776;37.544;2024-03-22T04:42:35;14.85;;;6.78;;
74503;SDS011;62988;55.776;37.544;2024-03-22T04:45:00;16.43;;;8.30;;
74503;SDS011;62988;55.776;37.544;2024-03-22T04:47:25;25.70;;;8.63;;
74503;SDS011;62988;55.776;37.544;2024-03-22T04:49:50;17.57;;;8.13;;
74503;SDS011;62988;55.776;37.544;2024-03-22T04:52:16;22.27;;;8.47;;
74503;SDS011;62988;55.776;37.544;2024-03-22T04:54:41;18.23;;;8.10;;
74503;SDS011;62988;55.776;37.544;2024-03-22T04:57:06;17.73;;;8.50;;
74503;SDS011;62988;55.776;37.544;2024-03-22T04:59:32;18.03;;;9.03;;
74503;SDS011;62988;55.776;37.544;2024-03-22T05:01:57;19.27;;;8.43;;
74503;SDS011;62988;55.776;37.544;2024-03-22T05:04:22;17.93;;;8.20;;
74503;SDS011;62988;55.776;37.544;2024-03-22T05:06:48;19.57;;;9.10;;
74503;SDS011;62988;55.776;37.544;2024-03-22T05:09:13;18.40;;;8.47;;
74503;SDS011;62988;55.776;37.544;2024-03-22T05:11:38;29.17;;;8.97;;
74503;SDS011;62988;55.776;37.544;2024-03-22T05:14:03;18.90;;;7.90;;
74503;SDS011;62988;55.776;37.544;2024-03-22T05:16:29;27.80;;;9.73;;
74503;SDS011;62988;55.776;37.544;2024-03-22T05:18:54;21.43;;;8.70;;
74503;SDS011;62988;55.776;37.544;2024-03-22T05:21:19;20.43;;;9.27;;
74503;SDS011;62988;55.776;37.544;2024-03-22T05:23:45;27.20;;;9.80;;
74503;SDS011;62988;55.776;37.544;2024-03-22T05:26:10;25.33;;;9.63;;
74503;SDS011;62988;55.776;37.544;2024-03-22T05:28:36;25.73;;;9.53;;
74503;SDS011;62988;55.776;37.544;2024-03-22T05:31:01;25.33;;;10.83;;
74503;SDS011;62988;55.776;37.544;2024-03-22T05:33:26;23.17;;;9.37;;
74503;SDS011;62988;55.776;37.544;2024-03-22T05:35:52;23.10;;;9.05;;
74503;SDS011;62988;55.776;37.544;2024-03-22T05:38:17;25.37;;;9.60;;
74503;SDS011;62988;55.776;37.544;2024-03-22T05:40:43;24.90;;;8.63;;
74503;SDS011;62988;55.776;37.544;2024-03-22T05:43:10;29.85;;;10.07;;
74503;SDS011;62988;55.776;37.544;2024-03-22T05:45:35;24.50;;;9.70;;
74503;SDS011;62988;55.776;37.544;2024-03-22T05:48:00;24.53;;;9.77;;
74503;SDS011;62988;55.776;37.544;2024-03-22T05:50:26;28.33;;;10.43;;
74503;SDS011;62988;55.776;37.544;2024-03-22T05:52:51;20.63;;;10.10;;
74503;SDS011;62988;55.776;37.544;2024-03-22T05:55:16;26.97;;;11.10;;
74503;SDS011;62988;55.776;37.544;2024-03-22T05:57:42;24.60;;;10.63;;
74503;SDS011;62988;55.776;37.544;2024-03-22T06:00:07;32.43;;;11.00;;
74503;SDS011;62988;55.776;37.544;2024-03-22T06:02:33;25.67;;;9.00;;
74503;SDS011;62988;55.776;37.544;2024-03-22T06:04:58;24.17;;;10.02;;
74503;SDS011;62988;55.776;37.544;2024-03-22T06:07:24;26.67;;;10.70;;
74503;SDS011;62988;55.776;37.544;2024-03-22T06:09:51;27.15;;;9.23;;
74503;SDS011;62988;55.776;37.544;2024-03-22T06:12:17;32.20;;;11.27;;
74503;SDS011;62988;55.776;37.544;2024-03-22T06:14:43;26.10;;;10.88;;
74503;SDS011;62988;55.776;37.544;2024-03-22T06:17:08;37.92;;;10.20;;
74503;SDS011;62988;55.776;37.544;2024-03-22T06:19:34;37.73;;;10.73;;
74503;SDS011;62988;55.776;37.544;2024-03-22T06:21:59;30.30;;;11.75;;
74503;SDS011;62988;55.776;37.544;2024-03-22T06:24:25;34.13;;;11.53;;
74503;SDS011;62988;55.776;37.544;2024-03-22T06:26:50;27.00;;;11.10;;
74503;SDS011;62988;55.776;37.544;2024-03-22T06:29:15;28.07;;;10.50;;
74503;SDS011;62988;55.776;37.544;2024-03-22T06:31:44;21.90;;;10.88;;
74503;SDS011;62988;55.776;37.544;2024-03-22T06:34:09;27.92;;;10.50;;
74503;SDS011;62988;55.776;37.544;2024-03-22T06:36:34;21.70;;;10.70;;
74503;SDS011;62988;55.776;37.544;2024-03-22T06:39:00;26.93;;;10.93;;
74503;SDS011;62988;55.776;37.544;2024-03-22T06:41:25;37.97;;;12.20;;
74503;SDS011;62988;55.776;37.544;2024-03-22T06:43:51;22.10;;;11.32;;
74503;SDS011;62988;55.776;37.544;2024-03-22T06:46:16;19.23;;;10.27;;
74503;SDS011;62988;55.776;37.544;2024-03-22T06:48:41;37.17;;;11.67;;
74503;SDS011;62988;55.776;37.544;2024-03-22T06:51:07;26.55;;;10.52;;
74503;SDS011;62988;55.776;37.544;2024-03-22T06:53:32;31.00;;;9.80;;
74503;SDS011;62988;55.776;37.544;2024-03-22T06:55:57;31.70;;;10.37;;
74503;SDS011;62988;55.776;37.544;2024-03-22T06:58:23;32.03;;;10.13;;
74503;SDS011;62988;55.776;37.544;2024-03-22T07:00:48;27.55;;;10.60;;
74503;SDS011;62988;55.776;37.544;2024-03-22T07:03:14;30.87;;;10.57;;
74503;SDS011;62988;55.776;37.544;2024-03-22T07:05:39;19.83;;;8.27;;
74503;SDS011;62988;55.776;37.544;2024-03-22T07:08:04;25.67;;;10.60;;
74503;SDS011;62988;55.776;37.544;2024-03-22T07:10:30;28.42;;;10.27;;
74503;SDS011;62988;55.776;37.544;2024-03-22T07:12:57;30.40;;;10.50;;
74503;SDS011;62988;55.776;37.544;2024-03-22T07:15:23;20.20;;;9.60;;
74503;SDS011;62988;55.776;37.544;2024-03-22T07:17:48;34.53;;;10.57;;
74503;SDS011;62988;55.776;37.544;2024-03-22T07:20:14;30.52;;;10.35;;
74503;SDS011;62988;55.776;37.544;2024-03-22T07:22:39;37.97;;;10.67;;
74503;SDS011;62988;55.776;37.544;2024-03-22T07:25:04;20.37;;;9.63;;
74503;SDS011;62988;55.776;37.544;2024-03-22T07:27:30;26.35;;;9.77;;
74503;SDS011;62988;55.776;37.544;2024-03-22T07:29:56;27.05;;;9.68;;
74503;SDS011;62988;55.776;37.544;2024-03-22T07:32:21;22.02;;;8.70;;
74503;SDS011;62988;55.776;37.544;2024-03-22T07:34:47;20.15;;;7.35;;
74503;SDS011;62988;55.776;37.544;2024-03-22T07:37:12;28.17;;;7.70;;
74503;SDS011;62988;55.776;37.544;2024-03-22T07:39:38;22.17;;;7.40;;
74503;SDS011;62988;55.776;37.544;2024-03-22T07:42:03;25.30;;;6.80;;
74503;SDS011;62988;55.776;37.544;2024-03-22T07:44:28;17.33;;;6.55;;
74503;SDS011;62988;55.776;37.544;2024-03-22T07:46:54;14.97;;;6.93;;
74503;SDS011;62988;55.776;37.544;2024-03-22T07:49:20;16.38;;;6.50;;
74503;SDS011;62988;55.776;37.544;2024-03-22T07:51:45;15.52;;;5.15;;
74503;SDS011;62988;55.776;37.544;2024-03-22T07:54:10;15.83;;;7.00;;
74503;SDS011;62988;55.776;37.544;2024-03-22T07:56:36;17.95;;;6.10;;
74503;SDS011;62988;55.776;37.544;2024-03-22T07:59:01;13.88;;;5.50;;
74503;SDS011;62988;55.776;37.544;2024-03-22T08:01:26;16.93;;;6.17;;
74503;SDS011;62988;55.776;37.544;2024-03-22T08:03:52;19.63;;;6.07;;
74503;SDS011;62988;55.776;37.544;2024-03-22T08:06:17;23.25;;;6.70;;
74503;SDS011;62988;55.776;37.544;2024-03-22T08:08:43;14.63;;;4.72;;
74503;SDS011;62988;55.776;37.544;2024-03-22T08:11:08;21.20;;;6.10;;
74503;SDS011;62988;55.776;37.544;2024-03-22T08:13:34;23.73;;;6.97;;
74503;SDS011;62988;55.776;37.544;2024-03-22T08:15:59;17.77;;;5.82;;
74503;SDS011;62988;55.776;37.544;2024-03-22T08:18:25;26.40;;;5.93;;
74503;SDS011;62988;55.776;37.544;2024-03-22T08:20:50;14.37;;;6.10;;
74503;SDS011;62988;55.776;37.544;2024-03-22T08:23:16;18.15;;;6.07;;
74503;SDS011;62988;55.776;37.544;2024-03-22T08:25:43;24.90;;;7.22;;
74503;SDS011;62988;55.776;37.544;2024-03-22T08:28:08;19.03;;;6.47;;
74503;SDS011;62988;55.776;37.544;2024-03-22T08:30:36;27.13;;;9.30;;
74503;SDS011;62988;55.776;37.544;2024-03-22T08:33:02;20.63;;;6.72;;
74503;SDS011;62988;55.776;37.544;2024-03-22T08:35:29;26.25;;;8.23;;
74503;SDS011;62988;55.776;37.544;2024-03-22T08:37:54;16.30;;;6.90;;
74503;SDS011;62988;55.776;37.544;2024-03-22T08:40:19;14.20;;;6.22;;
74503;SDS011;62988;55.776;37.544;2024-03-22T08:42:45;16.37;;;5.90;;
74503;SDS011;62988;55.776;37.544;2024-03-22T08:45:10;19.80;;;6.87;;
74503;SDS011;62988;55.776;37.544;2024-03-22T08:47:35;23.30;;;6.37;;
74503;SDS011;62988;55.776;37.544;2024-03-22T08:50:00;18.87;;;6.33;;
74503;SDS011;62988;55.776;37.544;2024-03-22T08:52:26;26.00;;;6.77;;
74503;SDS011;62988;55.776;37.544;2024-03-22T08:54:54;17.33;;;6.63;;
74503;SDS011;62988;55.776;37.544;2024-03-22T08:57:19;18.08;;;6.35;;
74503;SDS011;62988;55.776;37.544;2024-03-22T08:59:45;15.27;;;6.65;;
74503;SDS011;62988;55.776;37.544;2024-03-22T09:02:10;21.88;;;7.93;;
74503;SDS011;62988;55.776;37.544;2024-03-22T09:04:36;19.15;;;7.22;;
74503;SDS011;62988;55.776;37.544;2024-03-22T09:07:02;19.98;;;7.18;;
74503;SDS011;62988;55.776;37.544;2024-03-22T09:09:27;21.65;;;6.30;;
74503;SDS011;62988;55.776;37.544;2024-03-22T09:11:52;25.27;;;8.07;;
74503;SDS011;62988;55.776;37.544;2024-03-22T09:14:17;13.23;;;6.20;;
74503;SDS011;62988;55.776;37.544;2024-03-22T09:16:43;17.80;;;7.50;;
74503;SDS011;62988;55.776;37.544;2024-03-22T09:19:08;25.35;;;7.20;;
74503;SDS011;62988;55.776;37.544;2024-03-22T09:21:35;20.45;;;6.85;;
74503;SDS011;62988;55.776;37.544;2024-03-22T09:24:01;18.50;;;6.63;;
74503;SDS011;62988;55.776;37.544;2024-03-22T09:26:28;15.43;;;6.78;;
74503;SDS011;62988;55.776;37.544;2024-03-22T09:28:53;20.23;;;7.27;;
74503;SDS011;62988;55.776;37.544;2024-03-22T09:31:18;24.27;;;7.10;;
74503;SDS011;62988;55.776;37.544;2024-03-22T09:33:44;24.43;;;7.87;;
74503;SDS011;62988;55.776;37.544;2024-03-22T09:36:09;18.85;;;6.28;;
74503;SDS011;62988;55.776;37.544;2024-03-22T09:38:34;18.17;;;7.73;;
74503;SDS011;62988;55.776;37.544;2024-03-22T09:41:00;30.43;;;8.13;;
74503;SDS011;62988;55.776;37.544;2024-03-22T09:43:26;13.52;;;5.90;;
74503;SDS011;62988;55.776;37.544;2024-03-22T09:45:52;18.92;;;6.60;;
74503;SDS011;62988;55.776;37.544;2024-03-22T09:48:18;12.10;;;6.20;;
74503;SDS011;62988;55.776;37.544;2024-03-22T09:50:47;18.35;;;6.60;;
74503;SDS011;62988;55.776;37.544;2024-03-22T09:53:13;17.98;;;6.53;;
74503;SDS011;62988;55.776;37.544;2024-03-22T09:55:38;17.75;;;7.00;;
74503;SDS011;62988;55.776;37.544;2024-03-22T09:58:08;22.77;;;7.55;;
74503;SDS011;62988;55.776;37.544;2024-03-22T10:00:34;18.42;;;6.63;;
74503;SDS011;62988;55.776;37.544;2024-03-22T10:02:59;21.88;;;7.10;;
74503;SDS011;62988;55.776;37.544;2024-03-22T10:05:25;15.18;;;7.55;;
74503;SDS011;62988;55.776;37.544;2024-03-22T10:07:51;15.83;;;7.40;;
74503;SDS011;62988;55.776;37.544;2024-03-22T10:10:16;18.08;;;6.97;;
74503;SDS011;62988;55.776;37.544;2024-03-22T10:12:41;21.30;;;7.57;;
74503;SDS011;62988;55.776;37.544;2024-03-22T10:15:07;14.82;;;6.55;;
74503;SDS011;62988;55.776;37.544;2024-03-22T10:17:37;14.70;;;6.20;;
74503;SDS011;62988;55.776;37.544;2024-03-22T10:20:03;15.98;;;7.82;;
74503;SDS011;62988;55.776;37.544;2024-03-22T10:22:29;17.63;;;6.18;;
74503;SDS011;62988;55.776;37.544;2024-03-22T10:24:55;19.13;;;7.03;;
74503;SDS011;62988;55.776;37.544;2024-03-22T10:27:26;17.38;;;6.90;;
74503;SDS011;62988;55.776;37.544;2024-03-22T10:29:51;17.38;;;6.78;;
74503;SDS011;62988;55.776;37.544;2024-03-22T10:32:17;19.30;;;6.40;;
74503;SDS011;62988;55.776;37.544;2024-03-22T10:34:43;13.65;;;6.13;;
74503;SDS011;62988;55.776;37.544;2024-03-22T10:37:10;14.43;;;6.03;;
74503;SDS011;62988;55.776;37.544;2024-03-22T10:39:37;13.32;;;6.63;;
74503;SDS011;62988;55.776;37.544;2024-03-22T10:42:03;13.43;;;7.03;;
74503;SDS011;62988;55.776;37.544;2024-03-22T10:44:28;16.33;;;6.57;;
74503;SDS011;62988;55.776;37.544;2024-03-22T10:46:54;20.33;;;5.90;;
74503;SDS011;62988;55.776;37.544;2024-03-22T10:49:20;17.83;;;6.85;;
74503;SDS011;62988;55.776;37.544;2024-03-22T10:51:48;23.45;;;6.00;;
74503;SDS011;62988;55.776;37.544;2024-03-22T10:54:16;20.85;;;6.88;;
74503;SDS011;62988;55.776;37.544;2024-03-22T10:56:42;15.77;;;6.07;;
74503;SDS011;62988;55.776;37.544;2024-03-22T10:59:12;18.92;;;5.63;;
74503;SDS011;62988;55.776;37.544;2024-03-22T11:01:37;14.95;;;6.38;;
74503;SDS011;62988;55.776;37.544;2024-03-22T11:04:03;13.83;;;7.07;;
74503;SDS011;62988;55.776;37.544;2024-03-22T11:06:30;13.70;;;5.63;;
74503;SDS011;62988;55.776;37.544;2024-03-22T11:08:58;20.88;;;5.72;;
74503;SDS011;62988;55.776;37.544;2024-03-22T11:11:24;20.95;;;6.32;;
74503;SDS011;62988;55.776;37.544;2024-03-22T11:13:49;11.63;;;5.43;;
74503;SDS011;62988;55.776;37.544;2024-03-22T11:16:14;17.27;;;5.15;;
74503;SDS011;62988;55.776;37.544;2024-03-22T11:18:40;8.93;;;5.22;;
74503;SDS011;62988;55.776;37.544;2024-03-22T11:21:06;17.63;;;5.30;;
74503;SDS011;62988;55.776;37.544;2024-03-22T11:23:34;15.15;;;5.82;;
74503;SDS011;62988;55.776;37.544;2024-03-22T11:25:59;14.85;;;5.50;;
74503;SDS011;62988;55.776;37.544;2024-03-22T11:28:24;16.07;;;5.97;;
74503;SDS011;62988;55.776;37.544;2024-03-22T11:30:50;19.48;;;6.75;;
74503;SDS011;62988;55.776;37.544;2024-03-22T11:33:15;11.23;;;7.05;;
74503;SDS011;62988;55.776;37.544;2024-03-22T11:35:40;17.20;;;6.70;;
74503;SDS011;62988;55.776;37.544;2024-03-22T11:38:06;12.30;;;5.43;;
74503;SDS011;62988;55.776;37.544;2024-03-22T11:40:31;9.37;;;5.33;;
74503;SDS011;62988;55.776;37.544;2024-03-22T11:42:58;14.55;;;5.65;;
74503;SDS011;62988;55.776;37.544;2024-03-22T11:45:24;16.67;;;5.22;;
74503;SDS011;62988;55.776;37.544;2024-03-22T11:47:51;12.80;;;4.80;;
74503;SDS011;62988;55.776;37.544;2024-03-22T11:50:16;11.65;;;4.63;;
74503;SDS011;62988;55.776;37.544;2024-03-22T11:52:42;18.75;;;6.30;;
74503;SDS011;62988;55.776;37.544;2024-03-22T11:55:08;13.02;;;5.43;;
74503;SDS011;62988;55.776;37.544;2024-03-22T11:57:33;14.20;;;5.88;;
74503;SDS011;62988;55.776;37.544;2024-03-22T11:59:59;11.52;;;5.35;;
74503;SDS011;62988;55.776;37.544;2024-03-22T12:02:24;12.88;;;6.00;;
74503;SDS011;62988;55.776;37.544;2024-03-22T12:04:49;12.97;;;5.43;;
74503;SDS011;62988;55.776;37.544;2024-03-22T12:07:15;17.50;;;6.30;;
74503;SDS011;62988;55.776;37.544;2024-03-22T12:09:41;11.52;;;6.28;;
74503;SDS011;62988;55.776;37.544;2024-03-22T12:12:07;16.73;;;5.90;;
74503;SDS011;62988;55.776;37.544;2024-03-22T12:14:33;18.48;;;6.50;;
74503;SDS011;62988;55.776;37.544;2024-03-22T12:16:59;12.70;;;5.55;;
74503;SDS011;62988;55.776;37.544;2024-03-22T12:19:25;21.13;;;6.27;;
74503;SDS011;62988;55.776;37.544;2024-03-22T12:21:50;20.63;;;6.40;;
74503;SDS011;62988;55.776;37.544;2024-03-22T12:24:15;22.63;;;5.68;;
74503;SDS011;62988;55.776;37.544;2024-03-22T12:26:41;13.03;;;5.77;;
74503;SDS011;62988;55.776;37.544;2024-03-22T12:29:06;14.87;;;6.90;;
74503;SDS011;62988;55.776;37.544;2024-03-22T12:31:32;27.52;;;7.35;;
74503;SDS011;62988;55.776;37.544;2024-03-22T12:33:57;14.00;;;6.10;;
74503;SDS011;62988;55.776;37.544;2024-03-22T12:36:23;12.17;;;5.67;;
74503;SDS011;62988;55.776;37.544;2024-03-22T12:38:49;12.48;;;4.75;;
74503;SDS011;62988;55.776;37.544;2024-03-22T12:41:14;10.93;;;5.10;;
74503;SDS011;62988;55.776;37.544;2024-03-22T12:43:39;11.57;;;5.47;;
74503;SDS011;62988;55.776;37.544;2024-03-22T12:46:07;15.48;;;5.57;;
74503;SDS011;62988;55.776;37.544;2024-03-22T12:48:33;14.93;;;5.10;;
74503;SDS011;62988;55.776;37.544;2024-03-22T12:50:58;15.50;;;5.67;;
74503;SDS011;62988;55.776;37.544;2024-03-22T12:53:23;13.50;;;5.07;;
74503;SDS011;62988;55.776;37.544;2024-03-22T12:55:48;14.97;;;5.03;;
74503;SDS011;62988;55.776;37.544;2024-03-22T12:58:14;24.07;;;5.53;;
74503;SDS011;62988;55.776;37.544;2024-03-22T13:00:39;12.37;;;5.37;;
74503;SDS011;62988;55.776;37.544;2024-03-22T13:03:04;17.43;;;4.70;;
74503;SDS011;62988;55.776;37.544;2024-03-22T13:05:30;14.93;;;5.00;;
74503;SDS011;62988;55.776;37.544;2024-03-22T13:07:56;12.35;;;4.95;;
74503;SDS011;62988;55.776;37.544;2024-03-22T13:10:21;12.03;;;5.10;;
74503;SDS011;62988;55.776;37.544;2024-03-22T13:12:46;16.53;;;5.37;;
74503;SDS011;62988;55.776;37.544;2024-03-22T13:15:12;13.10;;;4.30;;
74503;SDS011;62988;55.776;37.544;2024-03-22T13:17:38;12.03;;;5.20;;
74503;SDS011;62988;55.776;37.544;2024-03-22T13:20:04;11.05;;;4.43;;
74503;SDS011;62988;55.776;37.544;2024-03-22T13:22:35;15.80;;;4.38;;
74503;SDS011;62988;55.776;37.544;2024-03-22T13:25:00;13.55;;;4.85;;
74503;SDS011;62988;55.776;37.544;2024-03-22T13:27:26;11.83;;;4.00;;
74503;SDS011;62988;55.776;37.544;2024-03-22T13:29:51;17.92;;;4.95;;
74503;SDS011;62988;55.776;37.544;2024-03-22T13:32:17;8.50;;;4.28;;
74503;SDS011;62988;55.776;37.544;2024-03-22T13:34:45;13.20;;;4.85;;
74503;SDS011;62988;55.776;37.544;2024-03-22T13:37:10;10.77;;;3.50;;
74503;SDS011;62988;55.776;37.544;2024-03-22T13:39:36;11.77;;;5.33;;
74503;SDS011;62988;55.776;37.544;2024-03-22T13:42:01;14.32;;;5.15;;
74503;SDS011;62988;55.776;37.544;2024-03-22T13:44:26;8.70;;;3.60;;
74503;SDS011;62988;55.776;37.544;2024-03-22T13:46:52;7.93;;;2.95;;
74503;SDS011;62988;55.776;37.544;2024-03-22T13:49:18;20.00;;;3.93;;
74503;SDS011;62988;55.776;37.544;2024-03-22T13:51:46;15.57;;;3.97;;
74503;SDS011;62988;55.776;37.544;2024-03-22T13:54:11;7.45;;;3.10;;
74503;SDS011;62988;55.776;37.544;2024-03-22T13:56:37;13.07;;;4.75;;
74503;SDS011;62988;55.776;37.544;2024-03-22T13:59:03;17.17;;;4.53;;
74503;SDS011;62988;55.776;37.544;2024-03-22T14:01:30;17.02;;;3.97;;
74503;SDS011;62988;55.776;37.544;2024-03-22T14:03:55;10.13;;;4.40;;
74503;SDS011;62988;55.776;37.544;2024-03-22T14:06:21;14.57;;;3.72;;
74503;SDS011;62988;55.776;37.544;2024-03-22T14:08:46;10.33;;;3.73;;
74503;SDS011;62988;55.776;37.544;2024-03-22T14:11:12;19.23;;;4.27;;